Airfield :







YOU CAN JOIN US ON...

 
LOGIN :

Register | Disclaimer

   EN    FR    IT 

 









Legend :    VFR   Marginal VFR   IFR   Intensive IFR   Very Intensive IFR
Visi :
Ceiling :
>= 8 km
>= 3000ft
5 to 8 km
1000 to 3000 ft
1500m to 5 km
500 to 1000 ft
800 to 1500m
200 to 500 ft
< 800m
< 200 ft
Symbols :   Thunderstorms  Fog  Heavy snow  Heavy precipitations  Wind > 20 kt






- Airport Elevation : 244 ft


KSFM - Sanford Regional

CURRENT METAR :
  • 231756Z AUTO 28017G25KT 10SM FEW034 18/08 A2975 RMK AO2 SLP076 60017 T01830078 10183 20106 58001

EXPIRED METARs :
  • 231722Z AUTO 28013G19KT 10SM SCT024 SCT030 18/11 A2974 RMK AO2
  • 231707Z AUTO 27010G17KT 240V340 10SM BKN022 18/12 A2975 RMK AO2
  • 231656Z AUTO 29010G14KT 10SM SCT020 SCT044 17/12 A2975 RMK AO2 SLP075 T01720117
  • 231621Z AUTO 28009KT 10SM FEW016 OVC040 15/12 A2976 RMK AO2
  • 231556Z AUTO 29006KT 10SM BKN012 OVC038 14/11 A2977 RMK AO2 SLP083 T01390111
  • 231522Z AUTO 30008KT 10SM OVC010 14/12 A2975 RMK AO2 CIG 008V014

TAF N/A



MET'MAP, your aeronautical weather chart ! - Copyright ORBIFLY December 2007 - Disclaimer

ORBIFLY MET'MAP TEAM :

Programming & Development : Alexandra Zaïnal
Concept & Development : Baudouin d'Aumeries
Co-Development & Prog : Marc-Olivier Méhu
Technical & hardware support : Manuel Goepfert

Contact : metmap@orbifly.com




SOURCES & CREDITS :

   NOAA